createdAt,value
2017-09-29T00:00:05.306Z,21.1
2017-09-29T00:02:05.011Z,21.1
2017-09-29T00:04:04.740Z,21.1
2017-09-29T00:06:05.770Z,21.1
2017-09-29T00:08:10.563Z,21.1
2017-09-29T00:10:07.835Z,21.1
2017-09-29T00:12:05.776Z,21.1
2017-09-29T00:14:05.533Z,21.1
2017-09-29T00:16:05.258Z,21.1
2017-09-29T00:18:07.801Z,21.1
2017-09-29T00:20:10.594Z,21.1
2017-09-29T00:22:05.433Z,21.1
2017-09-29T00:24:05.213Z,21.1
2017-09-29T00:26:04.909Z,21
2017-09-29T00:28:05.610Z,21.1
2017-09-29T00:30:08.174Z,21.1
2017-09-29T00:32:04.916Z,21.1
2017-09-29T00:34:09.720Z,21.1
2017-09-29T00:36:10.665Z,21.1
2017-09-29T00:38:07.571Z,21.1
2017-09-29T00:40:07.342Z,21.1
2017-09-29T00:42:07.736Z,21
2017-09-29T00:44:05.485Z,21
2017-09-29T00:46:04.769Z,21.1
2017-09-29T00:48:05.233Z,21.1
2017-09-29T00:50:04.959Z,21
2017-09-29T00:52:05.187Z,21
2017-09-29T00:54:05.021Z,21.1
2017-09-29T00:56:05.251Z,21
2017-09-29T00:58:04.974Z,21
2017-09-29T01:00:04.846Z,21
2017-09-29T01:02:10.626Z,21.1
2017-09-29T01:04:05.357Z,21.1
2017-09-29T01:06:05.308Z,21.1
2017-09-29T01:08:10.052Z,21
2017-09-29T01:10:07.452Z,21
2017-09-29T01:12:10.220Z,21
2017-09-29T01:14:05.104Z,21
2017-09-29T01:16:07.424Z,21
2017-09-29T01:18:05.653Z,21
2017-09-29T01:20:05.366Z,21
2017-09-29T01:22:05.272Z,21
2017-09-29T01:24:05.262Z,21
2017-09-29T01:26:07.815Z,21
2017-09-29T01:28:05.523Z,21
2017-09-29T01:30:10.305Z,21
2017-09-29T01:32:04.997Z,21
2017-09-29T01:34:04.748Z,21
2017-09-29T01:36:05.603Z,21
2017-09-29T01:38:04.912Z,21
2017-09-29T01:40:04.636Z,21
2017-09-29T01:42:08.157Z,21
2017-09-29T01:44:04.958Z,21
2017-09-29T01:46:04.663Z,21
2017-09-29T01:48:08.188Z,21
2017-09-29T01:50:09.986Z,21
2017-09-29T01:52:04.730Z,21
2017-09-29T01:54:05.520Z,21
2017-09-29T01:56:05.506Z,21
2017-09-29T01:58:10.399Z,21
2017-09-29T02:00:05.272Z,21
2017-09-29T02:02:05.021Z,21
2017-09-29T02:04:04.744Z,20.9
2017-09-29T02:06:05.630Z,21
2017-09-29T02:08:05.369Z,21
2017-09-29T02:10:05.048Z,20.9
2017-09-29T02:12:05.387Z,21
2017-09-29T02:14:10.290Z,21
2017-09-29T02:16:05.574Z,21
2017-09-29T02:18:08.123Z,21
2017-09-29T02:20:10.557Z,21
2017-09-29T02:22:05.304Z,21
2017-09-29T02:24:05.221Z,21
2017-09-29T02:26:04.946Z,21
2017-09-29T02:28:07.182Z,21
2017-09-29T02:30:05.140Z,21
2017-09-29T02:32:04.882Z,21
2017-09-29T02:34:08.113Z,21
2017-09-29T02:36:07.570Z,21
2017-09-29T02:38:05.356Z,21
2017-09-29T02:40:05.070Z,21
2017-09-29T02:42:05.397Z,21
2017-09-29T02:44:05.120Z,20.9
2017-09-29T02:46:04.914Z,21
2017-09-29T02:48:04.862Z,21
2017-09-29T02:50:05.616Z,21
2017-09-29T02:52:10.393Z,21
2017-09-29T02:54:07.668Z,21
2017-09-29T02:56:04.918Z,21
2017-09-29T02:58:04.714Z,21
2017-09-29T03:00:05.740Z,21
2017-09-29T03:02:08.132Z,21
2017-09-29T03:04:04.838Z,21
2017-09-29T03:06:08.448Z,21
2017-09-29T03:08:12.837Z,20.9
2017-09-29T03:10:05.606Z,21
2017-09-29T03:12:05.478Z,21
2017-09-29T03:14:07.821Z,21
2017-09-29T03:16:05.536Z,20.9
2017-09-29T03:18:05.643Z,21
2017-09-29T03:20:10.476Z,20.9
2017-09-29T03:22:10.324Z,20.9
2017-09-29T03:24:05.232Z,20.9
2017-09-29T03:26:04.927Z,21
2017-09-29T03:28:05.180Z,20.9
2017-09-29T03:30:05.680Z,20.9
2017-09-29T03:32:05.404Z,20.9
2017-09-29T03:34:05.225Z,20.9
2017-09-29T03:36:10.667Z,20.9
2017-09-29T03:38:05.389Z,20.9
2017-09-29T03:40:05.080Z,20.9
2017-09-29T03:42:07.671Z,20.9
2017-09-29T03:44:05.464Z,20.9
2017-09-29T03:46:05.182Z,21
2017-09-29T03:48:07.469Z,21
2017-09-29T03:50:05.242Z,21
2017-09-29T03:52:05.104Z,21
2017-09-29T03:54:05.432Z,21
2017-09-29T03:56:07.937Z,21
2017-09-29T03:58:04.641Z,21
2017-09-29T04:00:07.896Z,21
2017-09-29T04:02:05.557Z,21
2017-09-29T04:04:05.300Z,21
2017-09-29T04:06:05.133Z,21.1
2017-09-29T04:08:04.877Z,21
2017-09-29T04:10:08.064Z,21.1
2017-09-29T04:12:04.771Z,21.1
2017-09-29T04:14:05.545Z,21
2017-09-29T04:16:05.227Z,21
2017-09-29T04:18:05.028Z,21
2017-09-29T04:20:04.745Z,21.1
2017-09-29T04:22:08.269Z,21
2017-09-29T04:24:05.424Z,21
2017-09-29T04:26:05.139Z,21
2017-09-29T04:28:04.915Z,21
2017-09-29T04:30:04.739Z,21
2017-09-29T04:32:08.020Z,20.9
2017-09-29T04:34:04.777Z,20.9
2017-09-29T04:36:05.463Z,20.9
2017-09-29T04:38:05.287Z,20.9
2017-09-29T04:40:05.036Z,20.9
2017-09-29T04:42:04.778Z,20.9
2017-09-29T04:44:05.527Z,20.9
2017-09-29T04:46:21.212Z,20.9
2017-09-29T04:48:08.489Z,20.9
2017-09-29T04:50:09.954Z,20.8
2017-09-29T04:52:07.424Z,20.9
2017-09-29T04:54:05.235Z,20.8
2017-09-29T04:56:05.625Z,20.9
2017-09-29T04:58:04.898Z,20.9
2017-09-29T05:00:05.234Z,20.8
2017-09-29T05:02:05.499Z,20.8
2017-09-29T05:04:04.793Z,20.8
2017-09-29T05:06:07.630Z,20.8
2017-09-29T05:08:07.886Z,20.8
2017-09-29T05:10:08.260Z,20.8
2017-09-29T05:12:07.636Z,20.8
2017-09-29T05:14:05.418Z,20.8
2017-09-29T05:16:05.152Z,20.8
2017-09-29T05:18:05.238Z,20.8
2017-09-29T05:20:05.034Z,20.8
2017-09-29T05:22:10.530Z,20.8
2017-09-29T05:24:05.344Z,20.8
2017-09-29T05:26:05.248Z,20.8
2017-09-29T05:28:05.022Z,20.8
2017-09-29T05:30:07.430Z,20.8
2017-09-29T05:32:05.201Z,20.8
2017-09-29T05:34:07.580Z,20.8
2017-09-29T05:36:13.019Z,20.8
2017-09-29T05:38:04.736Z,20.8
2017-09-29T05:40:05.468Z,20.8
2017-09-29T05:42:06.280Z,20.8
2017-09-29T05:44:07.734Z,20.8
2017-09-29T05:46:04.688Z,20.8
2017-09-29T05:48:09.752Z,20.8
2017-09-29T05:50:05.521Z,20.8
2017-09-29T05:52:05.219Z,20.8
2017-09-29T05:54:05.066Z,20.8
2017-09-29T05:56:04.873Z,20.8
2017-09-29T05:58:05.609Z,20.8
2017-09-29T06:00:08.000Z,20.7
2017-09-29T06:02:09.765Z,20.8
2017-09-29T06:04:10.514Z,20.8
2017-09-29T06:06:05.368Z,20.7
2017-09-29T06:08:05.066Z,20.7
2017-09-29T06:10:04.787Z,20.7
2017-09-29T06:12:05.679Z,20.7
2017-09-29T06:14:07.943Z,20.8
2017-09-29T06:16:07.210Z,20.7
2017-09-29T06:18:07.999Z,20.8
2017-09-29T06:20:04.738Z,20.7
2017-09-29T06:22:05.495Z,20.8
2017-09-29T06:24:05.462Z,20.7
2017-09-29T06:26:05.311Z,20.8
2017-09-29T06:28:10.175Z,20.7
2017-09-29T06:30:05.062Z,20.7
2017-09-29T06:32:05.335Z,20.7
2017-09-29T06:34:10.107Z,20.8
2017-09-29T06:36:04.966Z,20.8
2017-09-29T06:38:05.345Z,20.9
2017-09-29T06:40:05.190Z,20.9
2017-09-29T06:42:04.963Z,21
2017-09-29T06:44:07.321Z,21
2017-09-29T06:46:05.363Z,21
2017-09-29T06:48:05.407Z,21
2017-09-29T06:50:05.177Z,21.1
2017-09-29T06:52:09.979Z,21
2017-09-29T06:54:05.496Z,21
2017-09-29T06:56:05.199Z,21.1
2017-09-29T06:58:15.004Z,21
2017-09-29T07:00:04.850Z,21
2017-09-29T07:02:08.207Z,21
2017-09-29T07:04:04.893Z,21
2017-09-29T07:06:07.836Z,21
2017-09-29T07:08:05.113Z,21
2017-09-29T07:10:04.799Z,21
2017-09-29T07:12:08.349Z,21
2017-09-29T07:14:05.016Z,21
2017-09-29T07:16:05.309Z,21
2017-09-29T07:18:07.886Z,21
2017-09-29T07:20:08.094Z,21.1
2017-09-29T07:22:05.401Z,21
2017-09-29T07:24:10.203Z,21
2017-09-29T07:26:10.400Z,21
2017-09-29T07:28:07.665Z,21.1
2017-09-29T07:30:05.714Z,21.1
2017-09-29T07:32:05.475Z,21.1
2017-09-29T07:34:08.052Z,21.1
2017-09-29T07:36:04.903Z,21.1
2017-09-29T07:38:05.205Z,21.1
2017-09-29T07:40:07.461Z,21.2
2017-09-29T07:42:05.308Z,21.2
2017-09-29T07:44:05.043Z,21.2
2017-09-29T07:46:07.808Z,21.3
2017-09-29T07:48:05.685Z,21.2
2017-09-29T07:50:05.787Z,21.3
2017-09-29T07:52:05.539Z,21.3
2017-09-29T07:54:05.443Z,21.4
2017-09-29T07:56:05.189Z,21.4
2017-09-29T07:58:05.026Z,21.4
2017-09-29T08:00:04.748Z,21.5
2017-09-29T08:02:04.999Z,21.5
2017-09-29T08:04:05.020Z,21.5
2017-09-29T08:06:06.362Z,21.5
2017-09-29T08:08:05.285Z,21.5
2017-09-29T08:10:07.084Z,21.6
2017-09-29T08:12:05.179Z,21.6
2017-09-29T08:14:08.378Z,21.7
2017-09-29T08:16:05.104Z,21.7
2017-09-29T08:18:10.165Z,21.8
2017-09-29T08:20:05.753Z,21.8
2017-09-29T08:22:05.285Z,21.9
2017-09-29T08:24:05.380Z,21.9
2017-09-29T08:26:07.690Z,22
2017-09-29T08:28:05.428Z,22
2017-09-29T08:30:05.322Z,22
2017-09-29T08:32:07.698Z,22
2017-09-29T08:34:05.493Z,22
2017-09-29T08:36:04.891Z,22.1
2017-09-29T08:38:05.716Z,22.1
2017-09-29T08:40:05.503Z,22.1
2017-09-29T08:42:07.262Z,22.3
2017-09-29T08:44:04.949Z,22.3
2017-09-29T08:46:05.202Z,22.3
2017-09-29T08:48:05.056Z,22.4
2017-09-29T08:50:04.762Z,22.4
2017-09-29T08:52:05.523Z,22.4
2017-09-29T08:54:04.948Z,22.3
2017-09-29T08:56:04.662Z,22.4
2017-09-29T08:58:05.343Z,22.3
2017-09-29T09:00:05.325Z,22.3
2017-09-29T09:02:05.006Z,22.3
2017-09-29T09:04:07.760Z,22.2
2017-09-29T09:06:05.571Z,22.3
2017-09-29T09:08:09.820Z,22.2
2017-09-29T09:10:05.716Z,22.2
2017-09-29T09:12:05.619Z,22.3
2017-09-29T09:14:07.859Z,22.4
2017-09-29T09:16:05.546Z,22.4
2017-09-29T09:18:05.562Z,22.4
2017-09-29T09:20:05.288Z,22.4
2017-09-29T09:22:04.964Z,22.4
2017-09-29T09:24:04.793Z,22.5
2017-09-29T09:26:08.153Z,22.5
2017-09-29T09:28:07.366Z,22.5
2017-09-29T09:30:05.721Z,22.5
2017-09-29T09:32:05.386Z,22.5
2017-09-29T09:34:07.789Z,22.6
2017-09-29T09:36:05.163Z,22.6
2017-09-29T09:38:07.401Z,22.5
2017-09-29T09:40:05.202Z,22.5
2017-09-29T09:42:05.272Z,22.5
2017-09-29T09:44:08.310Z,22.5
2017-09-29T09:46:10.572Z,22.5
2017-09-29T09:48:05.150Z,22.5
2017-09-29T09:50:05.091Z,22.5
2017-09-29T09:52:10.208Z,22.6
2017-09-29T09:54:06.163Z,22.6
2017-09-29T09:56:05.575Z,22.6
2017-09-29T09:58:05.213Z,22.5
2017-09-29T10:00:05.367Z,22.6
2017-09-29T10:02:04.697Z,22.5
2017-09-29T10:04:05.519Z,22.5
2017-09-29T10:06:10.565Z,22.5
2017-09-29T10:08:05.277Z,22.5
2017-09-29T10:10:04.906Z,22.5
2017-09-29T10:12:09.873Z,22.5
2017-09-29T10:14:05.056Z,22.5
2017-09-29T10:16:04.806Z,22.5
2017-09-29T10:18:04.958Z,22.4
2017-09-29T10:20:07.763Z,22.4
2017-09-29T10:22:09.253Z,22.4
2017-09-29T10:24:07.751Z,22.4
2017-09-29T10:26:05.478Z,22.4
2017-09-29T10:28:04.829Z,22.4
2017-09-29T10:30:05.759Z,22.4
2017-09-29T10:32:05.522Z,22.4
2017-09-29T10:34:05.323Z,22.4
2017-09-29T10:36:05.105Z,22.4
2017-09-29T10:38:04.878Z,22.4
2017-09-29T10:40:04.619Z,22.4
2017-09-29T10:42:08.478Z,22.3
2017-09-29T10:44:05.173Z,22.4
2017-09-29T10:46:07.502Z,22.4
2017-09-29T10:48:07.869Z,22.4
2017-09-29T10:50:05.566Z,22.4
2017-09-29T10:52:05.349Z,22.4
2017-09-29T10:54:05.224Z,22.4
2017-09-29T10:56:04.949Z,22.4
2017-09-29T10:58:04.637Z,22.4
2017-09-29T11:00:05.377Z,22.4
2017-09-29T11:02:10.281Z,22.4
2017-09-29T11:04:04.971Z,22.4
2017-09-29T11:06:07.259Z,22.4
2017-09-29T11:08:10.238Z,22.4
2017-09-29T11:10:04.945Z,22.4
2017-09-29T11:12:06.203Z,22.4
2017-09-29T11:14:08.014Z,22.4
2017-09-29T11:16:04.787Z,22.4
2017-09-29T11:18:05.531Z,22.4
2017-09-29T11:20:08.111Z,22.4
2017-09-29T11:22:09.956Z,22.4
2017-09-29T11:24:07.258Z,22.4
2017-09-29T11:26:05.012Z,22.3
2017-09-29T11:28:05.241Z,22.4
2017-09-29T11:30:05.151Z,22.4
2017-09-29T11:32:04.888Z,22.4
2017-09-29T11:34:05.758Z,22.4
2017-09-29T11:36:08.163Z,22.4
2017-09-29T11:38:04.881Z,22.5
2017-09-29T11:40:10.229Z,22.5
2017-09-29T11:42:05.224Z,22.4
2017-09-29T11:44:10.638Z,22.4
2017-09-29T11:46:04.946Z,22.4
2017-09-29T11:48:04.637Z,22.5
2017-09-29T11:50:10.525Z,22.4
2017-09-29T11:52:05.199Z,22.4
2017-09-29T11:54:05.112Z,22.5
2017-09-29T11:56:04.952Z,22.5
2017-09-29T11:58:04.705Z,22.6
2017-09-29T12:00:05.477Z,22.7
2017-09-29T12:02:05.232Z,22.7
2017-09-29T12:04:04.952Z,22.8
2017-09-29T12:06:05.765Z,22.8
2017-09-29T12:08:05.532Z,22.9
2017-09-29T12:10:07.748Z,23
2017-09-29T12:12:05.597Z,23
2017-09-29T12:14:05.441Z,23
2017-09-29T12:16:05.232Z,23.1
2017-09-29T12:18:05.125Z,23.1
2017-09-29T12:20:07.361Z,23.1
2017-09-29T12:22:05.336Z,23.1
2017-09-29T12:24:05.223Z,23.1
2017-09-29T12:26:04.905Z,23.1
2017-09-29T12:28:04.666Z,23.1
2017-09-29T12:30:05.575Z,23.1
2017-09-29T12:32:05.284Z,23.1
2017-09-29T12:34:04.958Z,23.2
2017-09-29T12:36:07.249Z,23.2
2017-09-29T12:38:05.112Z,23.2
2017-09-29T12:40:09.864Z,23.2
2017-09-29T12:42:05.823Z,23.3
2017-09-29T12:44:08.105Z,23.3
2017-09-29T12:46:04.828Z,23.3
2017-09-29T12:48:05.770Z,23.3
2017-09-29T12:50:05.457Z,23.3
2017-09-29T12:52:05.214Z,23.3
2017-09-29T12:54:05.233Z,23.3
2017-09-29T12:56:05.453Z,23.3
2017-09-29T12:58:05.231Z,23.3
2017-09-29T13:00:05.110Z,23.3
2017-09-29T13:02:05.316Z,23.4
2017-09-29T13:04:05.039Z,23.4
2017-09-29T13:06:07.461Z,23.4
2017-09-29T13:08:05.150Z,23.4
2017-09-29T13:10:04.989Z,23.4
2017-09-29T13:12:04.882Z,23.4
2017-09-29T13:14:08.096Z,23.4
2017-09-29T13:16:05.347Z,23.3
2017-09-29T13:18:07.887Z,23.3
2017-09-29T13:20:04.863Z,23.3
2017-09-29T13:22:05.590Z,23.2
2017-09-29T13:24:05.628Z,23.2
2017-09-29T13:26:05.374Z,23.2
2017-09-29T13:28:05.135Z,23.2
2017-09-29T13:30:05.356Z,23.2
2017-09-29T13:32:07.611Z,23.1
2017-09-29T13:34:05.297Z,23.1
2017-09-29T13:36:05.189Z,23.1
2017-09-29T13:38:07.415Z,23
2017-09-29T13:40:05.175Z,23
2017-09-29T13:42:05.592Z,23
2017-09-29T13:44:05.345Z,23
2017-09-29T13:46:05.545Z,23
2017-09-29T13:48:05.587Z,23
2017-09-29T13:50:05.244Z,23
2017-09-29T13:52:07.521Z,23
2017-09-29T13:54:05.351Z,23
2017-09-29T13:56:10.086Z,23
2017-09-29T13:58:10.398Z,23
2017-09-29T14:00:10.302Z,23
2017-09-29T14:02:05.001Z,23
2017-09-29T14:04:07.303Z,23
2017-09-29T14:06:05.057Z,23
2017-09-29T14:08:04.842Z,23
2017-09-29T14:10:05.566Z,23
2017-09-29T14:12:05.422Z,23
2017-09-29T14:14:12.630Z,23
2017-09-29T14:16:04.975Z,23
2017-09-29T14:18:04.958Z,23.1
2017-09-29T14:20:04.675Z,23
2017-09-29T14:22:04.932Z,23
2017-09-29T14:24:04.785Z,23
2017-09-29T14:26:05.015Z,23
2017-09-29T14:28:04.714Z,23.1
2017-09-29T14:30:07.976Z,23
2017-09-29T14:32:07.396Z,23
2017-09-29T14:34:05.099Z,23
2017-09-29T14:36:05.050Z,23.1
2017-09-29T14:38:07.378Z,23
2017-09-29T14:40:05.130Z,23
2017-09-29T14:42:05.174Z,23
2017-09-29T14:44:05.379Z,23
2017-09-29T14:46:05.378Z,23
2017-09-29T14:48:04.923Z,23
2017-09-29T14:50:05.631Z,23
2017-09-29T14:52:05.496Z,23
2017-09-29T14:54:07.857Z,23
2017-09-29T14:56:05.602Z,23
2017-09-29T14:58:05.506Z,23
2017-09-29T15:00:05.308Z,23
2017-09-29T15:02:05.529Z,23
2017-09-29T15:04:07.755Z,23
2017-09-29T15:06:10.444Z,23
2017-09-29T15:08:04.665Z,23.1
2017-09-29T15:10:05.389Z,23
2017-09-29T15:12:05.268Z,23
2017-09-29T15:14:12.607Z,23.2
2017-09-29T15:16:07.852Z,23.2
2017-09-29T15:18:04.821Z,23.2
2017-09-29T15:20:05.471Z,23.2
2017-09-29T15:22:05.186Z,23.2
2017-09-29T15:24:10.232Z,23.1
2017-09-29T15:26:05.505Z,23.1
2017-09-29T15:28:04.721Z,23.1
2017-09-29T15:30:05.549Z,23.1
2017-09-29T15:32:07.868Z,23.1
2017-09-29T15:34:11.766Z,23.1
2017-09-29T15:36:10.636Z,23
2017-09-29T15:38:05.843Z,23
2017-09-29T15:40:08.067Z,23
2017-09-29T15:42:05.292Z,23
2017-09-29T15:44:04.970Z,23
2017-09-29T15:46:04.693Z,23
2017-09-29T15:48:05.801Z,23
2017-09-29T15:50:17.718Z,23
2017-09-29T15:52:05.470Z,23
2017-09-29T15:54:07.699Z,23
2017-09-29T15:56:05.376Z,23
2017-09-29T15:58:07.615Z,23
2017-09-29T16:00:08.182Z,23
2017-09-29T16:02:10.966Z,22.9
2017-09-29T16:04:07.755Z,22.9
2017-09-29T16:06:07.345Z,22.9
2017-09-29T16:08:05.579Z,23
2017-09-29T16:10:05.329Z,23
2017-09-29T16:12:05.196Z,23
2017-09-29T16:14:04.939Z,23
2017-09-29T16:16:04.673Z,23
2017-09-29T16:18:05.271Z,23
2017-09-29T16:20:04.989Z,23.1
2017-09-29T16:22:05.241Z,23
2017-09-29T16:24:05.443Z,23
2017-09-29T16:26:05.108Z,23
2017-09-29T16:28:04.949Z,23
2017-09-29T16:30:05.346Z,23.1
2017-09-29T16:32:05.049Z,23.1
2017-09-29T16:34:07.250Z,23.2
2017-09-29T16:36:05.065Z,23.1
2017-09-29T16:38:05.098Z,23.1
2017-09-29T16:40:04.825Z,23.1
2017-09-29T16:42:05.720Z,23.1
2017-09-29T16:44:05.438Z,23.2
2017-09-29T16:46:04.656Z,23.2
2017-09-29T16:48:10.605Z,23.2
2017-09-29T16:50:10.456Z,23.1
2017-09-29T16:52:05.169Z,23.2
2017-09-29T16:54:07.551Z,23.2
2017-09-29T16:56:04.783Z,23.2
2017-09-29T16:58:05.447Z,23.1
2017-09-29T17:00:05.148Z,23.1
2017-09-29T17:02:04.886Z,23.1
2017-09-29T17:04:05.709Z,23.1
2017-09-29T17:06:05.596Z,23.1
2017-09-29T17:08:05.322Z,23.1
2017-09-29T17:10:04.999Z,23.1
2017-09-29T17:12:04.688Z,23.1
2017-09-29T17:14:05.404Z,23
2017-09-29T17:16:07.681Z,23
2017-09-29T17:18:04.758Z,23
2017-09-29T17:20:05.450Z,23
2017-09-29T17:22:07.743Z,23.1
2017-09-29T17:24:08.180Z,23
2017-09-29T17:26:05.057Z,23
2017-09-29T17:28:04.733Z,23
2017-09-29T17:30:05.529Z,23
2017-09-29T17:32:07.747Z,23
2017-09-29T17:34:07.961Z,23
2017-09-29T17:36:04.953Z,23
2017-09-29T17:38:04.661Z,23
2017-09-29T17:40:04.907Z,23
2017-09-29T17:42:04.817Z,22.9
2017-09-29T17:44:08.172Z,22.9
2017-09-29T17:46:04.953Z,22.9
2017-09-29T17:48:04.791Z,23
2017-09-29T17:50:05.177Z,22.9
2017-09-29T17:52:14.999Z,22.9
2017-09-29T17:54:04.946Z,22.9
2017-09-29T17:56:07.442Z,22.9
2017-09-29T17:58:07.829Z,22.9
2017-09-29T18:00:05.552Z,22.9
2017-09-29T18:02:07.323Z,22.9
2017-09-29T18:04:05.115Z,22.9
2017-09-29T18:06:04.936Z,22.9
2017-09-29T18:08:07.147Z,22.9
2017-09-29T18:10:04.977Z,22.8
2017-09-29T18:12:04.766Z,22.9
2017-09-29T18:14:05.459Z,22.9
2017-09-29T18:16:05.178Z,22.9
2017-09-29T18:18:05.292Z,22.9
2017-09-29T18:20:07.597Z,22.9
2017-09-29T18:22:05.297Z,22.8
2017-09-29T18:24:05.179Z,22.9
2017-09-29T18:26:04.958Z,22.9
2017-09-29T18:28:09.736Z,22.8
2017-09-29T18:30:08.105Z,22.8
2017-09-29T18:32:07.356Z,22.9
2017-09-29T18:34:05.608Z,22.8
2017-09-29T18:36:05.456Z,22.8
2017-09-29T18:38:12.324Z,22.8
2017-09-29T18:40:05.426Z,22.8
2017-09-29T18:42:05.390Z,22.8
2017-09-29T18:44:07.194Z,22.8
2017-09-29T18:46:05.029Z,22.8
2017-09-29T18:48:05.289Z,22.8
2017-09-29T18:50:05.036Z,22.8
2017-09-29T18:52:04.747Z,22.9
2017-09-29T18:54:07.264Z,22.8
2017-09-29T18:56:05.384Z,22.8
2017-09-29T18:58:05.081Z,22.9
2017-09-29T19:00:05.382Z,22.8
2017-09-29T19:02:05.611Z,22.8
2017-09-29T19:04:05.533Z,22.8
2017-09-29T19:06:05.355Z,22.8
2017-09-29T19:08:05.073Z,22.8
2017-09-29T19:10:04.763Z,22.8
2017-09-29T19:12:05.032Z,22.8
2017-09-29T19:14:04.753Z,22.8
2017-09-29T19:16:08.032Z,22.7
2017-09-29T19:18:05.258Z,22.7
2017-09-29T19:20:07.649Z,22.8
2017-09-29T19:22:05.352Z,22.7
2017-09-29T19:24:07.752Z,22.8
2017-09-29T19:26:05.487Z,22.7
2017-09-29T19:28:04.912Z,22.7
2017-09-29T19:30:04.882Z,22.8
2017-09-29T19:32:07.404Z,22.8
2017-09-29T19:34:05.288Z,22.7
2017-09-29T19:36:05.116Z,22.8
2017-09-29T19:38:04.916Z,22.7
2017-09-29T19:40:04.716Z,22.7
2017-09-29T19:42:04.906Z,22.7
2017-09-29T19:44:05.579Z,22.7
2017-09-29T19:46:07.843Z,22.7
2017-09-29T19:48:05.568Z,22.7
2017-09-29T19:50:10.269Z,22.7
2017-09-29T19:52:05.499Z,22.7
2017-09-29T19:54:05.258Z,22.7
2017-09-29T19:56:05.081Z,22.7
2017-09-29T19:58:04.813Z,22.7
2017-09-29T20:00:05.647Z,22.7
2017-09-29T20:02:05.594Z,22.7
2017-09-29T20:04:05.328Z,22.7
2017-09-29T20:06:05.181Z,22.6
2017-09-29T20:08:05.356Z,22.7
2017-09-29T20:10:13.181Z,22.7
2017-09-29T20:12:07.539Z,22.7
2017-09-29T20:14:05.473Z,22.7
2017-09-29T20:16:05.192Z,22.7
2017-09-29T20:18:05.223Z,22.6
2017-09-29T20:20:05.494Z,22.6
2017-09-29T20:22:05.349Z,22.6
2017-09-29T20:24:05.348Z,22.6
2017-09-29T20:26:05.199Z,22.6
2017-09-29T20:28:05.468Z,22.6
2017-09-29T20:30:05.234Z,22.7
2017-09-29T20:32:04.988Z,22.7
2017-09-29T20:34:05.673Z,22.6
2017-09-29T20:36:07.896Z,22.6
2017-09-29T20:38:04.816Z,22.6
2017-09-29T20:40:05.553Z,22.6
2017-09-29T20:42:05.448Z,22.6
2017-09-29T20:44:05.139Z,22.6
2017-09-29T20:46:05.292Z,22.6
2017-09-29T20:48:05.002Z,22.6
2017-09-29T20:50:04.664Z,22.6
2017-09-29T20:52:05.407Z,22.6
2017-09-29T20:54:05.312Z,22.6
2017-09-29T20:56:04.728Z,22.6
2017-09-29T20:58:05.436Z,22.6
2017-09-29T21:00:12.766Z,22.6
2017-09-29T21:02:05.528Z,22.6
2017-09-29T21:04:10.528Z,22.6
2017-09-29T21:06:05.520Z,22.6
2017-09-29T21:08:07.774Z,22.6
2017-09-29T21:10:04.716Z,22.5
2017-09-29T21:12:05.539Z,22.6
2017-09-29T21:14:04.766Z,22.5
2017-09-29T21:16:05.463Z,22.6
2017-09-29T21:18:05.556Z,22.6
2017-09-29T21:20:05.298Z,22.5
2017-09-29T21:22:05.521Z,22.5
2017-09-29T21:24:05.398Z,22.5
2017-09-29T21:26:05.337Z,22.5
2017-09-29T21:28:05.347Z,22.6
2017-09-29T21:30:07.861Z,22.5
2017-09-29T21:32:04.996Z,22.5
2017-09-29T21:34:04.723Z,22.5
2017-09-29T21:36:10.085Z,22.6
2017-09-29T21:38:07.306Z,22.6
2017-09-29T21:40:05.072Z,22.5
2017-09-29T21:42:04.987Z,22.5
2017-09-29T21:44:04.955Z,22.5
2017-09-29T21:46:09.694Z,22.5
2017-09-29T21:48:04.859Z,22.5
2017-09-29T21:50:07.718Z,22.5
2017-09-29T21:52:05.452Z,22.5
2017-09-29T21:54:05.770Z,22.5
2017-09-29T21:56:10.543Z,22.5
2017-09-29T21:58:13.260Z,22.5
2017-09-29T22:00:05.229Z,22.5
2017-09-29T22:02:04.957Z,22.5
2017-09-29T22:04:07.414Z,22.5
2017-09-29T22:06:04.686Z,22.5
2017-09-29T22:08:05.601Z,22.5
2017-09-29T22:10:05.287Z,22.6
2017-09-29T22:12:07.481Z,22.5
2017-09-29T22:14:05.188Z,22.5
2017-09-29T22:16:07.395Z,22.5
2017-09-29T22:18:05.522Z,22.5
2017-09-29T22:20:05.203Z,22.5
2017-09-29T22:22:04.942Z,22.5
2017-09-29T22:24:07.294Z,22.5
2017-09-29T22:26:04.957Z,22.5
2017-09-29T22:28:04.658Z,22.5
2017-09-29T22:30:05.671Z,22.5
2017-09-29T22:32:05.427Z,22.5
2017-09-29T22:34:05.214Z,22.5
2017-09-29T22:36:05.515Z,22.5
2017-09-29T22:38:04.713Z,22.5
2017-09-29T22:40:05.389Z,22.5
2017-09-29T22:42:05.092Z,22.5
2017-09-29T22:44:04.769Z,22.5
2017-09-29T22:46:05.696Z,22.5
2017-09-29T22:48:05.391Z,22.5
2017-09-29T22:50:05.235Z,22.5
2017-09-29T22:52:04.964Z,22.5
2017-09-29T22:54:04.808Z,22.5
2017-09-29T22:56:05.542Z,22.5
2017-09-29T22:58:05.290Z,22.5
2017-09-29T23:00:05.152Z,22.5
2017-09-29T23:02:05.596Z,22.5
2017-09-29T23:04:05.308Z,22.5
2017-09-29T23:06:05.425Z,22.5
2017-09-29T23:08:04.760Z,22.5
2017-09-29T23:10:05.515Z,22.5
2017-09-29T23:12:08.108Z,22.5
2017-09-29T23:14:04.800Z,22.5
2017-09-29T23:16:05.025Z,22.5
2017-09-29T23:18:07.586Z,22.5
2017-09-29T23:20:04.817Z,22.5
2017-09-29T23:22:05.582Z,22.5
2017-09-29T23:24:05.474Z,22.5
2017-09-29T23:26:05.157Z,22.4
2017-09-29T23:28:07.422Z,22.4
2017-09-29T23:30:05.226Z,22.4
2017-09-29T23:32:04.909Z,22.5
2017-09-29T23:34:04.868Z,22.5
2017-09-29T23:36:08.211Z,22.5
2017-09-29T23:38:10.038Z,22.5
2017-09-29T23:40:04.804Z,22.5
2017-09-29T23:42:07.854Z,22.5
2017-09-29T23:44:08.068Z,22.5
2017-09-29T23:46:04.699Z,22.5
2017-09-29T23:48:05.440Z,22.5
2017-09-29T23:50:05.284Z,22.5
2017-09-29T23:52:05.035Z,22.4
2017-09-29T23:54:07.619Z,22.4
2017-09-29T23:56:05.295Z,22.5
2017-09-29T23:58:05.178Z,22.5
